createdAt,value
2019-06-07T00:02:25.036Z,19.30
2019-06-07T00:04:53.014Z,19.30
2019-06-07T00:07:23.874Z,19.20
2019-06-07T00:09:51.867Z,19.20
2019-06-07T00:12:21.626Z,19.20
2019-06-07T00:14:49.862Z,19.10
2019-06-07T00:17:20.127Z,19.00
2019-06-07T00:19:47.596Z,19.00
2019-06-07T00:22:25.432Z,19.00
2019-06-07T00:24:45.161Z,19.00
2019-06-07T00:27:15.002Z,19.00
2019-06-07T00:29:42.621Z,18.90
2019-06-07T00:32:11.688Z,18.80
2019-06-07T00:34:40.066Z,18.80
2019-06-07T00:37:11.162Z,18.70
2019-06-07T00:39:38.254Z,18.60
2019-06-07T00:42:06.121Z,18.60
2019-06-07T00:44:34.053Z,18.50
2019-06-07T00:47:01.866Z,18.50
2019-06-07T00:49:40.506Z,18.40
2019-06-07T00:51:59.469Z,18.40
2019-06-07T00:54:27.498Z,18.40
2019-06-07T00:56:55.500Z,18.40
2019-06-07T00:59:28.964Z,18.40
2019-06-07T01:01:53.185Z,18.30
2019-06-07T01:04:25.288Z,18.30
2019-06-07T01:06:51.154Z,18.30
2019-06-07T01:09:23.946Z,18.30
2019-06-07T01:11:51.124Z,18.20
2019-06-07T01:14:22.102Z,18.20
2019-06-07T01:16:57.348Z,18.20
2019-06-07T01:19:18.991Z,18.10
2019-06-07T01:21:47.894Z,18.10
2019-06-07T01:24:17.503Z,18.10
2019-06-07T01:26:45.717Z,18.10
2019-06-07T01:29:14.099Z,18.00
2019-06-07T01:31:42.398Z,18.00
2019-06-07T01:34:10.491Z,18.00
2019-06-07T01:36:41.320Z,18.00
2019-06-07T01:39:09.137Z,18.00
2019-06-07T01:41:36.984Z,18.00
2019-06-07T01:44:04.795Z,18.00
2019-06-07T01:46:32.888Z,18.10
2019-06-07T01:49:00.809Z,18.10
2019-06-07T01:51:30.670Z,18.10
2019-06-07T01:54:48.577Z,18.20
2019-06-07T01:56:29.974Z,18.20
2019-06-07T01:58:58.104Z,18.30
2019-06-07T02:01:29.715Z,18.30
2019-06-07T02:03:56.882Z,18.30
2019-06-07T02:06:29.193Z,18.30
2019-06-07T02:08:54.478Z,18.30
2019-06-07T02:11:23.777Z,18.30
2019-06-07T02:13:51.895Z,18.30
2019-06-07T02:16:19.767Z,18.40
2019-06-07T02:19:01.138Z,18.40
2019-06-07T02:21:21.064Z,18.40
2019-06-07T02:23:48.351Z,18.40
2019-06-07T02:26:16.185Z,18.40
2019-06-07T02:28:45.767Z,18.40
2019-06-07T02:31:14.128Z,18.40
2019-06-07T02:33:43.887Z,18.40
2019-06-07T02:36:11.822Z,18.40
2019-06-07T02:38:41.142Z,18.50
2019-06-07T02:41:08.958Z,18.50
2019-06-07T02:43:37.437Z,18.50
2019-06-07T02:46:25.315Z,18.50
2019-06-07T02:48:40.126Z,18.60
2019-06-07T02:51:09.120Z,18.60
2019-06-07T02:53:40.315Z,18.60
2019-06-07T02:58:41.560Z,18.70
2019-06-07T03:01:09.643Z,18.70
2019-06-07T03:03:40.098Z,18.70
2019-06-07T03:06:10.557Z,18.70
2019-06-07T03:08:40.299Z,18.80
2019-06-07T03:11:09.421Z,18.80
2019-06-07T03:13:38.385Z,18.80
2019-06-07T03:16:08.140Z,18.80
2019-06-07T03:18:54.408Z,18.80
2019-06-07T03:21:23.925Z,18.80
2019-06-07T03:23:55.412Z,18.90
2019-06-07T03:26:24.875Z,19.00
2019-06-07T03:28:53.644Z,19.10
2019-06-07T03:31:21.665Z,19.30
2019-06-07T03:33:49.514Z,19.50
2019-06-07T03:36:25.427Z,19.70
2019-06-07T03:38:48.906Z,19.80
2019-06-07T03:41:18.262Z,20.00
2019-06-07T03:43:46.078Z,20.10
2019-06-07T03:46:14.091Z,20.20
2019-06-07T03:48:42.380Z,20.30
2019-06-07T03:51:24.002Z,20.30
2019-06-07T03:53:41.324Z,20.40
2019-06-07T03:56:10.811Z,20.50
2019-06-07T03:58:49.057Z,20.50
2019-06-07T04:01:10.874Z,20.50
2019-06-07T04:03:46.332Z,20.40
2019-06-07T04:06:08.627Z,20.40
2019-06-07T04:08:39.695Z,20.20
2019-06-07T04:11:06.232Z,20.20
2019-06-07T04:13:39.924Z,20.10
2019-06-07T04:16:07.642Z,20.00
2019-06-07T04:18:39.931Z,19.90
2019-06-07T04:21:07.081Z,19.90
2019-06-07T04:23:38.563Z,20.00
2019-06-07T04:26:04.940Z,20.00
2019-06-07T04:29:30.219Z,20.20
2019-06-07T04:31:08.263Z,20.40
2019-06-07T04:33:40.826Z,20.70
2019-06-07T04:36:06.401Z,21.10
2019-06-07T04:38:39.834Z,21.60
2019-06-07T04:41:06.124Z,22.00
2019-06-07T04:43:35.658Z,22.50
2019-06-07T04:46:04.835Z,22.80
2019-06-07T04:48:36.034Z,23.10
2019-06-07T04:51:05.101Z,23.20
2019-06-07T04:53:35.346Z,23.30
2019-06-07T04:56:04.291Z,23.20
2019-06-07T04:58:33.360Z,23.00
2019-06-07T05:01:03.661Z,22.90
2019-06-07T05:03:36.072Z,22.60
2019-06-07T05:06:01.367Z,22.40
2019-06-07T05:08:32.988Z,22.20
2019-06-07T05:11:00.672Z,22.00
2019-06-07T05:13:31.439Z,21.90
2019-06-07T05:15:59.479Z,21.80
2019-06-07T05:18:30.278Z,21.90
2019-06-07T05:21:00.047Z,21.80
2019-06-07T05:24:02.625Z,21.80
2019-06-07T05:25:59.981Z,21.80
2019-06-07T05:28:28.438Z,21.80
2019-06-07T05:31:05.782Z,21.70
2019-06-07T05:33:26.634Z,21.70
2019-06-07T05:35:55.099Z,21.50
2019-06-07T05:38:24.477Z,21.40
2019-06-07T05:40:53.126Z,21.30
2019-06-07T05:43:22.736Z,21.30
2019-06-07T05:45:51.116Z,21.20
2019-06-07T05:48:19.488Z,21.10
2019-06-07T05:50:56.501Z,21.10
2019-06-07T05:53:18.158Z,21.10
2019-06-07T05:55:47.673Z,21.10
2019-06-07T05:58:17.916Z,21.20
2019-06-07T06:00:47.594Z,21.20
2019-06-07T06:03:16.235Z,21.20
2019-06-07T06:05:54.167Z,21.30
2019-06-07T06:08:14.665Z,21.30
2019-06-07T06:10:48.012Z,21.40
2019-06-07T06:13:12.815Z,21.40
2019-06-07T06:15:56.221Z,21.60
2019-06-07T06:18:12.727Z,22.10
2019-06-07T06:21:06.189Z,23.30
2019-06-07T06:23:12.206Z,24.60
2019-06-07T06:25:42.593Z,25.30
2019-06-07T06:28:12.606Z,25.20
2019-06-07T06:30:41.127Z,25.40
2019-06-07T06:33:27.153Z,26.30
2019-06-07T06:35:40.176Z,27.40
2019-06-07T06:38:08.481Z,27.90
2019-06-07T06:40:38.901Z,27.80
2019-06-07T06:43:07.208Z,27.60
2019-06-07T06:45:35.490Z,27.10
2019-06-07T06:48:04.029Z,26.40
2019-06-07T06:50:32.265Z,25.60
2019-06-07T06:53:02.574Z,24.90
2019-06-07T06:55:32.357Z,24.20
2019-06-07T06:58:02.235Z,23.90
2019-06-07T07:00:50.342Z,23.50
2019-06-07T07:05:43.372Z,23.00
2019-06-07T07:08:13.075Z,22.90
2019-06-07T07:10:45.993Z,22.80
2019-06-07T07:13:16.598Z,22.50
2019-06-07T07:15:55.123Z,22.40
2019-06-07T07:18:18.419Z,22.20
2019-06-07T07:20:48.245Z,22.10
2019-06-07T07:23:17.429Z,22.10
2019-06-07T07:25:50.794Z,22.00
2019-06-07T07:28:15.996Z,21.80
2019-06-07T07:30:47.114Z,21.60
2019-06-07T07:33:16.545Z,21.40
2019-06-07T07:36:07.845Z,21.20
2019-06-07T07:38:15.614Z,21.00
2019-06-07T07:43:14.168Z,20.50
2019-06-07T07:45:45.904Z,20.30
2019-06-07T07:48:18.216Z,20.10
2019-06-07T07:50:47.702Z,20.00
2019-06-07T07:53:15.142Z,19.90
2019-06-07T07:55:45.189Z,19.80
2019-06-07T07:58:14.278Z,19.80
2019-06-07T08:00:55.004Z,19.80
2019-06-07T08:03:12.799Z,19.90
2019-06-07T08:05:45.641Z,20.10
2019-06-07T08:08:15.082Z,20.20
2019-06-07T08:10:43.486Z,20.50
2019-06-07T08:13:24.489Z,20.90
2019-06-07T08:15:42.070Z,21.30
2019-06-07T08:18:11.163Z,21.80
2019-06-07T08:21:01.046Z,22.40
2019-06-07T08:23:10.216Z,23.20
2019-06-07T08:25:38.682Z,23.80
2019-06-07T08:28:07.162Z,24.50
2019-06-07T08:30:49.836Z,26.10
2019-06-07T08:33:24.566Z,27.30
2019-06-07T08:38:24.994Z,29.70
2019-06-07T08:40:35.750Z,31.60
2019-06-07T08:43:18.177Z,32.80
2019-06-07T08:45:34.113Z,32.70
2019-06-07T08:48:09.288Z,32.20
2019-06-07T08:50:32.730Z,31.80
2019-06-07T08:53:11.232Z,32.50
2019-06-07T08:55:31.291Z,32.80
2019-06-07T08:58:04.132Z,33.10
2019-06-07T09:00:45.535Z,34.10
2019-06-07T09:03:05.136Z,35.00
2019-06-07T09:05:30.789Z,35.60
2019-06-07T09:08:21.699Z,36.10
2019-06-07T09:10:29.311Z,36.00
2019-06-07T09:13:00.311Z,36.20
2019-06-07T09:15:27.920Z,37.00
2019-06-07T09:18:35.468Z,37.40
2019-06-07T09:20:36.881Z,38.60
2019-06-07T09:23:15.481Z,40.10
2019-06-07T09:25:52.173Z,41.40
2019-06-07T09:28:13.386Z,42.60
2019-06-07T09:30:40.245Z,43.30
2019-06-07T09:33:09.244Z,43.90
2019-06-07T09:35:38.285Z,44.10
2019-06-07T09:38:18.032Z,44.70
2019-06-07T09:40:36.700Z,45.30
2019-06-07T09:43:59.008Z,45.90
2019-06-07T09:45:36.382Z,46.50
2019-06-07T09:48:12.598Z,46.90
2019-06-07T09:50:36.666Z,46.30
2019-06-07T09:53:18.979Z,44.90
2019-06-07T09:55:35.286Z,43.30
2019-06-07T09:58:47.793Z,41.50
2019-06-07T10:00:40.881Z,39.70
2019-06-07T10:03:16.136Z,38.70
2019-06-07T10:05:37.839Z,38.80
2019-06-07T10:08:25.625Z,38.90
2019-06-07T10:10:37.161Z,38.50
2019-06-07T10:13:06.577Z,38.50
2019-06-07T10:15:35.755Z,38.90
2019-06-07T10:18:05.267Z,38.20
2019-06-07T10:20:34.006Z,37.70
2019-06-07T10:23:05.556Z,37.10
2019-06-07T10:25:34.376Z,36.70
2019-06-07T10:28:03.857Z,36.90
2019-06-07T10:30:32.569Z,36.30
2019-06-07T10:33:02.193Z,35.50
2019-06-07T10:35:32.769Z,34.70
2019-06-07T10:38:00.822Z,34.40
2019-06-07T10:40:29.108Z,35.00
2019-06-07T10:42:57.758Z,35.40
2019-06-07T10:45:28.895Z,35.60
2019-06-07T10:47:57.395Z,36.50
2019-06-07T10:50:25.718Z,36.90
2019-06-07T10:52:54.295Z,36.50
2019-06-07T10:55:24.618Z,35.80
2019-06-07T10:57:53.082Z,35.70
2019-06-07T11:00:23.945Z,35.40
2019-06-07T11:02:55.099Z,34.80
2019-06-07T11:05:22.627Z,34.00
2019-06-07T11:07:50.998Z,33.20
2019-06-07T11:10:21.279Z,32.70
2019-06-07T11:12:49.766Z,32.00
2019-06-07T11:15:19.469Z,31.00
2019-06-07T11:17:48.150Z,30.10
2019-06-07T11:20:18.609Z,29.40
2019-06-07T11:22:49.925Z,28.80
2019-06-07T11:25:18.661Z,28.30
2019-06-07T11:27:47.564Z,28.00
2019-06-07T11:30:16.261Z,27.90
2019-06-07T11:32:45.088Z,28.00
2019-06-07T11:35:14.020Z,28.10
2019-06-07T11:37:43.674Z,28.30
2019-06-07T11:40:35.022Z,28.40
2019-06-07T11:42:42.176Z,28.30
2019-06-07T11:45:11.241Z,28.10
2019-06-07T11:47:40.594Z,27.90
2019-06-07T11:50:09.814Z,27.80
2019-06-07T11:52:38.780Z,27.90
2019-06-07T11:55:09.004Z,27.90
2019-06-07T11:57:37.657Z,27.90
2019-06-07T12:00:09.373Z,27.80
2019-06-07T12:02:38.091Z,27.60
2019-06-07T12:05:07.510Z,27.60
2019-06-07T12:07:35.842Z,27.70
2019-06-07T12:10:08.476Z,27.90
2019-06-07T12:12:37.442Z,28.00
2019-06-07T12:15:08.672Z,28.10
2019-06-07T12:17:37.707Z,28.20
2019-06-07T12:20:08.736Z,28.40
2019-06-07T12:22:37.025Z,28.60
2019-06-07T12:25:07.392Z,28.70
2019-06-07T12:27:36.103Z,28.60
2019-06-07T12:30:11.177Z,28.50
2019-06-07T12:32:37.769Z,28.50
2019-06-07T12:35:06.719Z,28.40
2019-06-07T12:37:43.759Z,28.30
2019-06-07T12:40:06.463Z,28.30
2019-06-07T12:42:35.059Z,28.40
2019-06-07T12:45:06.642Z,28.40
2019-06-07T12:47:35.031Z,28.40
2019-06-07T12:50:05.211Z,28.50
2019-06-07T12:52:33.791Z,28.50
2019-06-07T12:55:03.436Z,28.50
2019-06-07T12:57:31.905Z,28.50
2019-06-07T13:00:05.119Z,28.50
2019-06-07T13:02:33.940Z,28.40
2019-06-07T13:05:04.639Z,28.40
2019-06-07T13:07:32.490Z,28.30
2019-06-07T13:10:02.007Z,28.30
2019-06-07T13:12:30.553Z,28.40
2019-06-07T13:14:59.071Z,28.50
2019-06-07T13:17:28.653Z,28.40
2019-06-07T13:19:57.500Z,28.40
2019-06-07T13:22:26.234Z,28.40
2019-06-07T13:24:54.594Z,28.40
2019-06-07T13:27:24.442Z,28.50
2019-06-07T13:29:53.678Z,28.60
2019-06-07T13:32:23.660Z,28.70
2019-06-07T13:34:53.413Z,28.80
2019-06-07T13:37:21.818Z,28.70
2019-06-07T13:39:50.365Z,28.60
2019-06-07T13:42:18.748Z,28.50
2019-06-07T13:44:47.240Z,28.50
2019-06-07T13:47:16.804Z,28.50
2019-06-07T13:49:47.245Z,28.50
2019-06-07T13:52:15.816Z,28.50
2019-06-07T13:54:44.191Z,28.50
2019-06-07T13:57:12.795Z,28.40
2019-06-07T13:59:41.334Z,28.40
2019-06-07T14:02:09.922Z,28.50
2019-06-07T14:04:38.316Z,28.50
2019-06-07T14:07:06.957Z,28.50
2019-06-07T14:09:36.204Z,28.50
2019-06-07T14:12:05.543Z,28.50
2019-06-07T14:14:35.576Z,28.40
2019-06-07T14:17:04.143Z,28.30
2019-06-07T14:19:32.715Z,28.10
2019-06-07T14:22:01.517Z,27.80
2019-06-07T14:24:31.196Z,27.70
2019-06-07T14:27:09.176Z,27.70
2019-06-07T14:29:37.314Z,27.70
2019-06-07T14:32:06.867Z,27.60
2019-06-07T14:34:37.344Z,27.60
2019-06-07T14:37:05.753Z,27.60
2019-06-07T14:39:34.232Z,27.70
2019-06-07T14:42:09.290Z,27.80
2019-06-07T14:44:32.110Z,27.90
2019-06-07T14:47:00.238Z,28.00
2019-06-07T14:49:28.615Z,28.00
2019-06-07T14:51:58.356Z,28.10
2019-06-07T14:54:31.481Z,28.20
2019-06-07T14:56:57.813Z,28.20
2019-06-07T14:59:26.261Z,28.20
2019-06-07T15:01:54.909Z,28.20
2019-06-07T15:04:23.492Z,28.20
2019-06-07T15:06:52.038Z,28.10
2019-06-07T15:09:20.447Z,27.80
2019-06-07T15:11:48.894Z,27.60
2019-06-07T15:14:19.748Z,27.40
2019-06-07T15:16:48.291Z,27.30
2019-06-07T15:19:16.896Z,27.20
2019-06-07T15:21:45.525Z,27.20
2019-06-07T15:24:17.066Z,27.20
2019-06-07T15:26:45.585Z,27.10
2019-06-07T15:29:14.102Z,27.00
2019-06-07T15:31:45.716Z,26.90
2019-06-07T15:34:13.949Z,26.80
2019-06-07T15:36:42.717Z,26.80
2019-06-07T15:39:12.884Z,26.70
2019-06-07T15:41:41.123Z,26.70
2019-06-07T15:44:09.741Z,26.60
2019-06-07T15:46:40.149Z,26.60
2019-06-07T15:49:09.118Z,26.50
2019-06-07T15:51:38.624Z,26.60
2019-06-07T15:54:08.610Z,26.60
2019-06-07T15:56:37.102Z,26.60
2019-06-07T15:59:06.144Z,26.50
2019-06-07T16:01:37.676Z,26.40
2019-06-07T16:04:06.423Z,26.30
2019-06-07T16:06:36.068Z,26.20
2019-06-07T16:09:06.610Z,26.10
2019-06-07T16:11:34.747Z,26.00
2019-06-07T16:14:06.226Z,25.90
2019-06-07T16:16:35.031Z,25.70
2019-06-07T16:19:04.406Z,25.60
2019-06-07T16:21:35.276Z,25.40
2019-06-07T16:24:04.842Z,25.30
2019-06-07T16:26:33.997Z,25.20
2019-06-07T16:29:02.633Z,25.20
2019-06-07T16:31:31.066Z,25.20
2019-06-07T16:34:02.337Z,25.20
2019-06-07T16:36:30.871Z,25.20
2019-06-07T16:38:58.975Z,25.20
2019-06-07T16:41:27.367Z,25.20
2019-06-07T16:43:55.916Z,25.10
2019-06-07T16:46:24.430Z,25.00
2019-06-07T16:48:54.553Z,25.00
2019-06-07T16:51:22.740Z,25.00
2019-06-07T16:53:51.415Z,24.90
2019-06-07T16:56:20.896Z,24.90
2019-06-07T16:58:49.451Z,24.90
2019-06-07T17:01:18.679Z,24.90
2019-06-07T17:03:47.628Z,25.00
2019-06-07T17:06:16.477Z,25.00
2019-06-07T17:08:46.140Z,25.00
2019-06-07T17:11:14.763Z,25.00
2019-06-07T17:13:44.333Z,25.00
2019-06-07T17:16:13.095Z,24.90
2019-06-07T17:18:42.952Z,24.90
2019-06-07T17:21:11.480Z,24.90
2019-06-07T17:23:41.123Z,25.00
2019-06-07T17:26:11.454Z,24.90
2019-06-07T17:28:41.619Z,25.00
2019-06-07T17:31:10.296Z,24.90
2019-06-07T17:33:39.767Z,24.90
2019-06-07T17:36:08.299Z,24.90
2019-06-07T17:38:36.832Z,24.90
2019-06-07T17:41:05.326Z,24.90
2019-06-07T17:43:48.613Z,25.00
2019-06-07T17:46:03.937Z,25.20
2019-06-07T17:48:32.610Z,25.40
2019-06-07T17:51:00.843Z,25.40
2019-06-07T17:53:30.580Z,25.40
2019-06-07T17:55:59.355Z,25.20
2019-06-07T17:58:27.811Z,25.10
2019-06-07T18:00:56.016Z,25.00
2019-06-07T18:03:26.446Z,24.80
2019-06-07T18:05:55.120Z,24.70
2019-06-07T18:08:24.278Z,24.70
2019-06-07T18:10:54.011Z,24.50
2019-06-07T18:13:22.519Z,24.40
2019-06-07T18:15:55.515Z,24.40
2019-06-07T18:18:23.498Z,24.20
2019-06-07T18:20:53.740Z,24.20
2019-06-07T18:23:22.035Z,24.20
2019-06-07T18:25:50.613Z,24.30
2019-06-07T18:28:18.947Z,24.30
2019-06-07T18:30:48.746Z,24.20
2019-06-07T18:33:17.060Z,24.10
2019-06-07T18:35:46.849Z,24.10
2019-06-07T18:38:15.374Z,23.90
2019-06-07T18:40:43.951Z,23.80
2019-06-07T18:43:12.624Z,23.70
2019-06-07T18:45:41.218Z,23.60
2019-06-07T18:48:10.005Z,23.40
2019-06-07T18:50:38.497Z,23.30
2019-06-07T18:53:07.063Z,23.30
2019-06-07T18:55:35.479Z,23.20
2019-06-07T18:58:06.546Z,23.10
2019-06-07T19:00:34.658Z,23.00
2019-06-07T19:03:02.804Z,23.00
2019-06-07T19:05:31.459Z,22.90
2019-06-07T19:07:59.978Z,22.90
2019-06-07T19:10:28.466Z,22.80
2019-06-07T19:12:57.797Z,22.70
2019-06-07T19:15:26.354Z,22.70
2019-06-07T19:17:56.063Z,22.60
2019-06-07T19:20:25.441Z,22.50
2019-06-07T19:22:54.245Z,22.50
2019-06-07T19:25:22.823Z,22.50
2019-06-07T19:27:52.583Z,22.40
2019-06-07T19:30:21.070Z,22.30
2019-06-07T19:32:51.409Z,22.30
2019-06-07T19:35:20.173Z,22.30
2019-06-07T19:37:51.561Z,22.20
2019-06-07T19:40:21.572Z,22.20
2019-06-07T19:42:49.946Z,22.10
2019-06-07T19:45:30.434Z,22.00
2019-06-07T19:47:48.385Z,22.00
2019-06-07T19:50:16.722Z,22.00
2019-06-07T19:52:46.687Z,21.90
2019-06-07T19:55:16.179Z,21.90
2019-06-07T19:57:44.911Z,21.80
2019-06-07T20:00:14.413Z,21.80
2019-06-07T20:02:43.235Z,21.70
2019-06-07T20:05:14.617Z,21.70
2019-06-07T20:07:43.520Z,21.70
2019-06-07T20:10:12.146Z,21.60
2019-06-07T20:12:40.855Z,21.70
2019-06-07T20:15:27.219Z,21.60
2019-06-07T20:17:40.528Z,21.60
2019-06-07T20:20:09.439Z,21.50
2019-06-07T20:22:37.647Z,21.50
2019-06-07T20:25:07.051Z,21.40
2019-06-07T20:27:35.678Z,21.40
2019-06-07T20:30:05.692Z,21.30
2019-06-07T20:32:34.056Z,21.30
2019-06-07T20:35:03.804Z,21.20
2019-06-07T20:37:32.397Z,21.20
2019-06-07T20:40:16.694Z,21.20
2019-06-07T20:42:31.372Z,21.10
2019-06-07T20:45:00.226Z,21.10
2019-06-07T20:47:28.453Z,21.00
2019-06-07T20:49:57.843Z,21.00
2019-06-07T20:52:26.362Z,20.90
2019-06-07T20:54:55.129Z,20.90
2019-06-07T20:57:24.513Z,20.80
2019-06-07T20:59:53.094Z,20.80
2019-06-07T21:02:21.380Z,20.80
2019-06-07T21:04:49.841Z,20.80
2019-06-07T21:07:18.473Z,20.70
2019-06-07T21:09:46.444Z,20.70
2019-06-07T21:12:14.603Z,20.70
2019-06-07T21:14:43.081Z,20.70
2019-06-07T21:17:11.460Z,20.60
2019-06-07T21:19:39.715Z,20.60
2019-06-07T21:22:10.880Z,20.60
2019-06-07T21:24:39.519Z,20.50
2019-06-07T21:27:09.367Z,20.50
2019-06-07T21:29:40.746Z,20.40
2019-06-07T21:32:12.488Z,20.40
2019-06-07T21:34:40.643Z,20.40
2019-06-07T21:37:09.960Z,20.40
2019-06-07T21:39:41.895Z,20.30
2019-06-07T21:42:12.312Z,20.30
2019-06-07T21:44:41.080Z,20.20
2019-06-07T21:47:10.836Z,20.20
2019-06-07T21:49:39.155Z,20.10
2019-06-07T21:52:08.667Z,20.10
2019-06-07T21:54:37.638Z,20.10
2019-06-07T21:57:11.121Z,20.20
2019-06-07T21:59:41.312Z,20.10
2019-06-07T22:02:11.611Z,20.10
2019-06-07T22:04:42.536Z,20.10
2019-06-07T22:07:13.934Z,20.00
2019-06-07T22:09:49.856Z,20.00
2019-06-07T22:12:20.171Z,19.90
2019-06-07T22:14:50.194Z,19.90
2019-06-07T22:17:18.927Z,19.80
2019-06-07T22:19:57.868Z,19.80
2019-06-07T22:22:29.397Z,19.80
2019-06-07T22:24:58.109Z,19.70
2019-06-07T22:27:28.660Z,19.70
2019-06-07T22:29:57.204Z,19.80
2019-06-07T22:32:26.206Z,19.70
2019-06-07T22:34:54.919Z,19.70
2019-06-07T22:37:25.092Z,19.70
2019-06-07T22:39:55.736Z,19.70
2019-06-07T22:42:27.553Z,19.70
2019-06-07T22:44:56.082Z,19.70
2019-06-07T22:47:26.138Z,19.60
2019-06-07T22:49:59.373Z,19.60
2019-06-07T22:52:28.335Z,19.60
2019-06-07T22:54:56.646Z,19.60
2019-06-07T22:57:43.268Z,19.60
2019-06-07T23:00:16.237Z,19.60
2019-06-07T23:02:47.642Z,19.70
2019-06-07T23:05:16.826Z,19.70
2019-06-07T23:07:45.665Z,19.70
2019-06-07T23:10:13.758Z,19.70
2019-06-07T23:12:44.765Z,19.70
2019-06-07T23:15:15.391Z,19.60
2019-06-07T23:17:43.434Z,19.60
2019-06-07T23:20:11.847Z,19.60
2019-06-07T23:22:40.374Z,19.60
2019-06-07T23:25:10.031Z,19.60
2019-06-07T23:27:38.139Z,19.50
2019-06-07T23:30:08.560Z,19.50
2019-06-07T23:32:36.852Z,19.50
2019-06-07T23:35:06.680Z,19.40
2019-06-07T23:37:34.695Z,19.40
2019-06-07T23:40:02.973Z,19.40
2019-06-07T23:42:31.457Z,19.40
2019-06-07T23:44:59.530Z,19.40
2019-06-07T23:47:31.638Z,19.40
2019-06-07T23:49:59.848Z,19.40
2019-06-07T23:52:27.946Z,19.40
2019-06-07T23:54:56.260Z,19.40
2019-06-07T23:57:26.307Z,19.40
2019-06-07T23:59:56.781Z,19.40
